Time;durP1;ratioP1;P1;durP2;ratioP2;P2;SDS_P1;SDS_P2;PMS_P1;PMS_P2;Temp;Humidity;BMP_temperature;BMP_pressure;BME280_temperature;BME280_humidity;BME280_pressure;Samples;Min_cycle;Max_cycle;Signal;HPM_P1;HPM_P2
2023/03/04 00:01:41;;;;;;;47.27;27.53;;;6.50;99.90;;;;;;4989985;28;20297;-76
2023/03/04 00:04:06;;;;;;;45.87;28.30;;;6.50;99.90;;;;;;4991111;28;20626;-76
2023/03/04 00:06:32;;;;;;;42.87;25.87;;;6.50;99.90;;;;;;4974941;28;20206;-76
2023/03/04 00:08:58;;;;;;;40.07;24.47;;;6.50;99.90;;;;;;4992217;28;20297;-74
2023/03/04 00:11:24;;;;;;;41.10;24.70;;;6.50;99.90;;;;;;4991503;28;20182;-75
2023/03/04 00:13:50;;;;;;;43.53;27.00;;;6.60;99.90;;;;;;4991486;28;20190;-75
2023/03/04 00:16:15;;;;;;;36.83;23.10;;;6.50;99.90;;;;;;4992387;28;20582;-75
2023/03/04 00:18:41;;;;;;;35.30;21.43;;;6.50;99.90;;;;;;4992522;28;20202;-76
2023/03/04 00:21:07;;;;;;;37.20;22.50;;;6.50;99.90;;;;;;4993799;28;20174;-75
2023/03/04 00:23:32;;;;;;;37.27;21.57;;;6.50;99.90;;;;;;4991922;28;20424;-75
2023/03/04 00:25:58;;;;;;;30.13;20.20;;;6.50;99.90;;;;;;4991030;28;20186;-75
2023/03/04 00:28:27;;;;;;;33.87;21.60;;;6.50;99.90;;;;;;4991948;28;20180;-75
2023/03/04 00:30:53;;;;;;;34.85;20.35;;;6.60;99.90;;;;;;4990441;28;20183;-75
2023/03/04 00:33:19;;;;;;;33.60;19.60;;;6.60;99.90;;;;;;4990328;28;20214;-75
2023/03/04 00:35:45;;;;;;;33.23;19.20;;;6.60;99.90;;;;;;4989872;28;20191;-75
2023/03/04 00:38:10;;;;;;;31.45;19.83;;;6.60;99.90;;;;;;4991572;28;20693;-75
2023/03/04 00:40:36;;;;;;;26.67;18.40;;;6.60;99.90;;;;;;4973689;28;20930;-75
2023/03/04 00:43:03;;;;;;;25.80;17.27;;;6.60;99.90;;;;;;4991547;28;20205;-75
2023/03/04 00:45:29;;;;;;;28.23;18.30;;;6.60;99.90;;;;;;4991677;28;20175;-76
2023/03/04 00:47:55;;;;;;;29.63;18.40;;;6.60;99.90;;;;;;4976106;28;20490;-76
2023/03/04 00:50:20;;;;;;;26.30;17.10;;;6.60;99.90;;;;;;4991295;28;20179;-76
2023/03/04 00:52:46;;;;;;;28.73;16.17;;;6.60;99.90;;;;;;4975505;28;20225;-76
2023/03/04 00:55:12;;;;;;;28.37;16.07;;;6.60;99.90;;;;;;4991315;28;20553;-76
2023/03/04 00:57:38;;;;;;;26.47;15.63;;;6.60;99.90;;;;;;4994113;28;20241;-75
2023/03/04 01:00:06;;;;;;;30.65;16.58;;;6.60;99.90;;;;;;4989894;28;20583;-74
2023/03/04 01:02:32;;;;;;;23.80;15.38;;;6.60;99.90;;;;;;4990634;28;20253;-76
2023/03/04 01:04:57;;;;;;;22.90;14.57;;;6.70;99.90;;;;;;4974872;28;20183;-76
2023/03/04 01:07:23;;;;;;;20.03;13.47;;;6.70;99.90;;;;;;4993036;28;20175;-75
2023/03/04 01:09:49;;;;;;;21.17;12.90;;;6.70;99.90;;;;;;4994980;28;20225;-76
2023/03/04 01:12:14;;;;;;;20.00;11.70;;;6.70;99.90;;;;;;4993392;28;20213;-76
2023/03/04 01:14:40;;;;;;;24.17;13.60;;;6.80;99.90;;;;;;4977738;28;20658;-75
2023/03/04 01:17:06;;;;;;;17.53;10.20;;;6.80;99.90;;;;;;4993671;28;20489;-76
2023/03/04 01:19:31;;;;;;;18.07;12.30;;;6.80;99.90;;;;;;4977544;28;20183;-76
2023/03/04 01:21:58;;;;;;;18.05;10.70;;;6.80;99.90;;;;;;4994145;28;20603;-74
2023/03/04 01:24:23;;;;;;;17.03;9.63;;;6.80;99.90;;;;;;4993035;28;20190;-73
2023/03/04 01:26:49;;;;;;;19.90;10.27;;;6.80;99.90;;;;;;4978377;28;20206;-73
2023/03/04 01:29:15;;;;;;;20.40;11.47;;;6.90;99.90;;;;;;4995206;28;20658;-73
2023/03/04 01:31:41;;;;;;;16.47;10.53;;;6.90;99.90;;;;;;4994215;28;20179;-73
2023/03/04 01:34:08;;;;;;;21.70;9.70;;;6.80;99.90;;;;;;4999991;28;20717;-74
2023/03/04 01:36:35;;;;;;;15.00;9.45;;;6.90;99.90;;;;;;4996693;28;20229;-74
2023/03/04 01:39:00;;;;;;;14.93;9.83;;;6.90;99.90;;;;;;4994313;28;20272;-73
2023/03/04 01:41:27;;;;;;;17.23;8.97;;;6.90;99.90;;;;;;4977882;28;20926;-73
2023/03/04 01:43:57;;;;;;;16.05;9.02;;;6.90;99.90;;;;;;4996082;28;20293;-73
2023/03/04 01:46:23;;;;;;;16.20;9.27;;;6.90;99.90;;;;;;4993265;28;20167;-74
2023/03/04 01:48:50;;;;;;;18.00;10.15;;;6.90;99.90;;;;;;4977813;28;20565;-74
2023/03/04 01:51:18;;;;;;;13.37;8.13;;;6.90;99.90;;;;;;4973754;28;20191;-74
2023/03/04 01:53:49;;;;;;;13.10;8.63;;;6.90;99.90;;;;;;4994995;28;20230;-74
2023/03/04 01:56:16;;;;;;;24.90;10.73;;;6.90;99.90;;;;;;4994204;28;20174;-73
2023/03/04 01:58:42;;;;;;;15.20;9.13;;;6.90;99.90;;;;;;4994510;28;20234;-74
2023/03/04 02:01:11;;;;;;;10.98;8.00;;;6.90;99.90;;;;;;4973896;28;20352;-74
2023/03/04 02:03:38;;;;;;;13.35;8.13;;;6.90;99.90;;;;;;4989248;28;20290;-74
2023/03/04 02:06:04;;;;;;;13.50;8.45;;;6.90;99.90;;;;;;4993586;28;20559;-74
2023/03/04 02:08:30;;;;;;;11.65;7.30;;;6.90;99.90;;;;;;4992935;28;20202;-74
2023/03/04 02:10:56;;;;;;;11.45;8.00;;;6.90;99.90;;;;;;4986297;28;20187;-73
2023/03/04 02:13:22;;;;;;;12.93;7.03;;;6.90;99.90;;;;;;4988507;28;20217;-73
2023/03/04 02:15:48;;;;;;;11.90;6.93;;;6.90;99.90;;;;;;4976176;28;20609;-73
2023/03/04 02:18:23;;;;;;;12.18;6.90;;;6.90;99.90;;;;;;4991755;28;20634;-73
2023/03/04 02:21:14;;;;;;;12.52;6.72;;;6.90;99.90;;;;;;4991754;28;20217;-74
2023/03/04 02:24:04;;;;;;;11.63;6.72;;;6.90;99.90;;;;;;4993424;28;20702;-73
2023/03/04 02:26:34;;;;;;;12.70;5.97;;;6.90;99.90;;;;;;4976403;28;20586;-73
2023/03/04 02:29:01;;;;;;;10.82;5.40;;;6.90;99.90;;;;;;4991986;28;20178;-73
2023/03/04 02:31:46;;;;;;;12.27;5.70;;;6.90;99.90;;;;;;4975663;28;20171;-73
2023/03/04 02:34:20;;;;;;;14.25;6.03;;;6.90;99.90;;;;;;4993310;28;20193;-74
2023/03/04 02:36:48;;;;;;;13.70;5.40;;;6.90;99.90;;;;;;4992611;28;20174;-72
2023/03/04 02:39:40;;;;;;;10.43;5.40;;;6.90;99.90;;;;;;4975614;28;20264;-72
2023/03/04 02:42:07;;;;;;;9.57;5.80;;;6.90;99.90;;;;;;4992223;28;20170;-74
2023/03/04 02:44:39;;;;;;;10.27;6.35;;;6.90;99.90;;;;;;4992836;28;20183;-72
2023/03/04 02:47:08;;;;;;;10.80;5.97;;;7.00;99.90;;;;;;4976019;28;20199;-73
2023/03/04 02:49:36;;;;;;;9.05;4.70;;;7.00;99.90;;;;;;4960291;28;20167;-73
2023/03/04 02:52:08;;;;;;;9.15;5.13;;;7.00;99.90;;;;;;4992204;28;20163;-73
2023/03/04 02:54:36;;;;;;;8.75;4.10;;;7.00;99.90;;;;;;4976171;28;20696;-72
2023/03/04 02:57:05;;;;;;;11.88;5.97;;;7.10;99.90;;;;;;4992922;28;20222;-74
2023/03/04 02:59:34;;;;;;;12.07;5.40;;;7.10;99.90;;;;;;4992485;28;20261;-74
2023/03/04 03:02:00;;;;;;;6.15;3.45;;;7.10;99.90;;;;;;4992334;28;20172;-74
2023/03/04 03:04:26;;;;;;;8.00;4.85;;;7.10;99.90;;;;;;4991803;28;20175;-73
2023/03/04 03:06:53;;;;;;;11.98;4.90;;;7.10;99.90;;;;;;4991679;28;20171;-74
2023/03/04 03:09:20;;;;;;;5.75;3.35;;;7.10;99.90;;;;;;4959640;28;20666;-74
2023/03/04 03:11:45;;;;;;;10.30;4.70;;;7.10;99.90;;;;;;4990686;28;20175;-74
2023/03/04 03:14:11;;;;;;;8.30;3.80;;;7.10;99.90;;;;;;4991792;28;20203;-72
2023/03/04 03:16:37;;;;;;;8.15;4.30;;;7.10;99.90;;;;;;4991562;28;20618;-73
2023/03/04 03:19:03;;;;;;;9.65;3.83;;;7.10;99.90;;;;;;4991381;28;20261;-72
2023/03/04 03:21:30;;;;;;;11.38;4.75;;;7.20;99.90;;;;;;4942942;28;20179;-73
2023/03/04 03:23:56;;;;;;;9.73;4.70;;;7.20;99.90;;;;;;4974982;28;20222;-73
2023/03/04 03:26:24;;;;;;;7.50;3.85;;;7.20;99.90;;;;;;4976338;28;20705;-73
2023/03/04 03:28:50;;;;;;;6.47;3.88;;;7.20;99.90;;;;;;4958639;28;20167;-72
2023/03/04 03:31:16;;;;;;;7.53;4.05;;;7.20;99.90;;;;;;4990030;28;20182;-73
2023/03/04 03:33:45;;;;;;;10.40;3.90;;;7.20;99.90;;;;;;4990932;28;20253;-73
2023/03/04 03:36:11;;;;;;;14.57;6.10;;;7.20;99.90;;;;;;4992846;28;20186;-73
2023/03/04 03:38:37;;;;;;;10.33;4.27;;;7.20;99.90;;;;;;4992198;28;20586;-72
2023/03/04 03:41:03;;;;;;;10.32;4.78;;;7.20;99.90;;;;;;4990828;28;20179;-74
2023/03/04 03:43:29;;;;;;;8.50;3.77;;;7.20;99.90;;;;;;4990890;28;20198;-74
2023/03/04 03:45:54;;;;;;;10.77;4.00;;;7.20;99.90;;;;;;4991187;28;20582;-72
2023/03/04 03:48:20;;;;;;;8.50;4.40;;;7.20;99.90;;;;;;4991161;28;20171;-73
2023/03/04 03:50:46;;;;;;;9.85;4.97;;;7.20;99.90;;;;;;4989804;28;20186;-73
2023/03/04 03:53:12;;;;;;;9.63;4.40;;;7.20;99.90;;;;;;4991796;28;20191;-73
2023/03/04 03:55:38;;;;;;;9.27;4.17;;;7.20;99.90;;;;;;4990907;28;20234;-73
2023/03/04 03:58:04;;;;;;;8.90;4.60;;;7.20;99.90;;;;;;4992414;28;20431;-74
2023/03/04 04:00:30;;;;;;;11.65;4.32;;;7.20;99.90;;;;;;4991690;28;20594;-73
2023/03/04 04:02:58;;;;;;;10.97;3.77;;;7.20;99.90;;;;;;4991955;28;20268;-74
2023/03/04 04:05:24;;;;;;;9.05;3.72;;;7.20;99.90;;;;;;4990897;28;20186;-74
2023/03/04 04:07:49;;;;;;;8.17;3.70;;;7.30;99.90;;;;;;4991045;28;20175;-74
2023/03/04 04:10:15;;;;;;;10.40;4.27;;;7.30;99.90;;;;;;4990564;28;20210;-74
2023/03/04 04:12:41;;;;;;;12.00;5.73;;;7.20;99.90;;;;;;4993058;28;20292;-74
2023/03/04 04:15:09;;;;;;;7.13;3.27;;;7.30;99.90;;;;;;4991462;28;20639;-74
2023/03/04 04:17:35;;;;;;;12.40;3.70;;;7.30;99.90;;;;;;4991211;28;20203;-74
2023/03/04 04:20:00;;;;;;;9.07;3.10;;;7.30;99.90;;;;;;4990158;28;20178;-74
2023/03/04 04:22:26;;;;;;;12.60;4.40;;;7.30;99.90;;;;;;4991152;28;20194;-74
2023/03/04 04:24:52;;;;;;;9.90;4.60;;;7.30;99.90;;;;;;4991926;28;20669;-74
2023/03/04 04:27:18;;;;;;;9.90;3.50;;;7.30;99.90;;;;;;4990250;28;20187;-74
2023/03/04 04:29:44;;;;;;;8.10;4.60;;;7.30;99.90;;;;;;4990205;28;20171;-74
2023/03/04 04:32:11;;;;;;;9.60;3.30;;;7.30;99.90;;;;;;4989553;28;20546;-74
2023/03/04 04:34:38;;;;;;;10.32;3.95;;;7.30;99.90;;;;;;4991925;28;20175;-74
2023/03/04 04:37:03;;;;;;;7.85;3.63;;;7.30;99.90;;;;;;4990557;28;20255;-73
2023/03/04 04:39:29;;;;;;;10.47;4.00;;;7.30;99.90;;;;;;4991517;28;20631;-76
2023/03/04 04:41:55;;;;;;;7.73;3.13;;;7.30;99.90;;;;;;4993344;28;20175;-77
2023/03/04 04:44:21;;;;;;;13.50;4.83;;;7.30;99.90;;;;;;4991398;28;20634;-76
2023/03/04 04:46:46;;;;;;;10.03;3.90;;;7.30;99.90;;;;;;4974117;28;20175;-76
2023/03/04 04:49:12;;;;;;;9.60;4.03;;;7.30;99.90;;;;;;4990213;28;20183;-77
2023/03/04 04:51:38;;;;;;;11.03;5.10;;;7.40;99.90;;;;;;4973472;28;20241;-77
2023/03/04 04:54:04;;;;;;;12.05;6.90;;;7.30;99.90;;;;;;4989723;28;20211;-76
2023/03/04 04:56:30;;;;;;;16.63;8.27;;;7.30;99.90;;;;;;4990583;28;20175;-77
2023/03/04 04:58:59;;;;;;;13.65;7.70;;;7.30;99.90;;;;;;4991266;28;20203;-77
2023/03/04 05:01:25;;;;;;;16.40;9.07;;;7.30;99.90;;;;;;4971659;28;20230;-76
2023/03/04 05:03:54;;;;;;;17.17;8.68;;;7.30;99.90;;;;;;4991722;28;20195;-76
2023/03/04 05:06:21;;;;;;;21.02;9.50;;;7.30;99.90;;;;;;4973414;28;20686;-76
2023/03/04 05:08:46;;;;;;;17.67;9.48;;;7.40;99.90;;;;;;4991084;28;20209;-75
2023/03/04 05:11:12;;;;;;;17.27;7.70;;;7.30;99.90;;;;;;4972672;28;20723;-75
2023/03/04 05:13:38;;;;;;;23.00;11.50;;;7.30;99.90;;;;;;4989312;28;20199;-75
2023/03/04 05:16:04;;;;;;;15.00;8.97;;;7.40;99.90;;;;;;4990825;28;20978;-75
2023/03/04 05:18:30;;;;;;;16.05;8.32;;;7.40;99.90;;;;;;4993310;28;20195;-75
2023/03/04 05:20:58;;;;;;;14.70;8.30;;;7.40;99.90;;;;;;4988760;28;20262;-76
2023/03/04 05:23:26;;;;;;;28.40;7.90;;;7.40;99.90;;;;;;4990636;28;20530;-76
2023/03/04 05:25:52;;;;;;;10.32;7.30;;;7.40;99.90;;;;;;4989986;28;20179;-75
2023/03/04 05:28:18;;;;;;;12.43;6.77;;;7.40;99.90;;;;;;4990456;28;20217;-76
2023/03/04 05:30:45;;;;;;;10.30;6.22;;;7.40;99.90;;;;;;4989186;28;20593;-75
2023/03/04 05:33:12;;;;;;;11.43;6.05;;;7.40;99.90;;;;;;4988914;28;20203;-75
2023/03/04 05:35:40;;;;;;;7.20;5.18;;;7.40;99.90;;;;;;4989896;28;20187;-76
2023/03/04 05:38:08;;;;;;;14.18;5.45;;;7.50;99.90;;;;;;4989365;28;20206;-75
2023/03/04 05:40:34;;;;;;;11.90;4.95;;;7.50;99.90;;;;;;4989208;28;20532;-76
2023/03/04 05:42:59;;;;;;;11.37;4.90;;;7.50;99.90;;;;;;4988972;28;20194;-75
2023/03/04 05:45:26;;;;;;;11.80;4.80;;;7.50;99.90;;;;;;4990520;28;20577;-76
2023/03/04 05:47:53;;;;;;;7.35;3.83;;;7.50;99.90;;;;;;4989400;28;20233;-76
2023/03/04 05:50:20;;;;;;;6.47;3.10;;;7.50;99.90;;;;;;4990409;28;20167;-75
2023/03/04 05:52:46;;;;;;;7.07;3.03;;;7.50;99.90;;;;;;4991030;28;20195;-76
2023/03/04 05:55:12;;;;;;;7.77;2.60;;;7.60;99.90;;;;;;4997288;28;20179;-76
2023/03/04 05:57:38;;;;;;;7.72;2.65;;;7.60;99.90;;;;;;4994635;28;20629;-76
2023/03/04 06:00:08;;;;;;;9.80;3.77;;;7.60;99.90;;;;;;4993436;28;20539;-76
2023/03/04 06:02:38;;;;;;;12.13;4.30;;;7.60;99.90;;;;;;4992660;28;20241;-76
2023/03/04 06:05:05;;;;;;;8.23;4.05;;;7.60;99.90;;;;;;4993891;28;20265;-76
2023/03/04 06:07:31;;;;;;;8.20;3.63;;;7.60;99.90;;;;;;4976844;28;20175;-76
2023/03/04 06:09:56;;;;;;;11.80;3.10;;;7.60;99.90;;;;;;4992027;28;20186;-76
2023/03/04 06:12:22;;;;;;;7.33;3.30;;;7.60;99.90;;;;;;4993472;28;20222;-77
2023/03/04 06:14:48;;;;;;;7.15;2.60;;;7.60;99.90;;;;;;4992711;28;20623;-76
2023/03/04 06:17:14;;;;;;;5.80;2.17;;;7.60;99.90;;;;;;4993874;28;20170;-76
2023/03/04 06:19:42;;;;;;;4.80;1.93;;;7.60;99.90;;;;;;4993493;28;20171;-76
2023/03/04 06:22:09;;;;;;;7.07;2.10;;;7.60;99.90;;;;;;4993060;28;20609;-76
2023/03/04 06:24:34;;;;;;;5.47;2.50;;;7.60;99.90;;;;;;4976693;28;20825;-76
2023/03/04 06:27:01;;;;;;;7.27;1.90;;;7.60;99.90;;;;;;4975917;28;20179;-76
2023/03/04 06:29:27;;;;;;;10.80;2.83;;;7.60;99.90;;;;;;4993981;28;20171;-76
2023/03/04 06:31:52;;;;;;;8.82;2.08;;;7.60;99.90;;;;;;4991313;28;20190;-76
2023/03/04 06:34:18;;;;;;;6.07;1.73;;;7.60;99.90;;;;;;4993995;28;20199;-76
2023/03/04 06:36:46;;;;;;;6.80;2.03;;;7.60;99.90;;;;;;4992165;28;20219;-76
2023/03/04 06:39:15;;;;;;;6.90;1.88;;;7.60;99.90;;;;;;4992408;28;20246;-76
2023/03/04 06:41:40;;;;;;;4.67;1.80;;;7.60;99.90;;;;;;4992894;28;20195;-77
2023/03/04 06:44:06;;;;;;;5.13;2.20;;;7.60;99.90;;;;;;4993072;28;20191;-76
2023/03/04 06:46:33;;;;;;;6.40;2.13;;;7.60;99.90;;;;;;4993721;28;20182;-76
2023/03/04 06:48:58;;;;;;;7.80;3.25;;;7.60;99.90;;;;;;4993245;28;20179;-75
2023/03/04 06:51:24;;;;;;;5.93;2.30;;;7.60;99.90;;;;;;4992939;28;20179;-75
2023/03/04 06:53:50;;;;;;;11.33;2.50;;;7.60;99.90;;;;;;4975457;28;20272;-75
2023/03/04 06:56:16;;;;;;;7.03;2.53;;;7.60;99.90;;;;;;4993407;28;20176;-75
2023/03/04 06:58:43;;;;;;;8.00;2.10;;;7.60;99.90;;;;;;4991731;28;20770;-76
2023/03/04 07:01:20;;;;;;;7.43;1.98;;;7.60;99.90;;;;;;4992449;28;20175;-76
2023/03/04 07:03:47;;;;;;;6.55;1.83;;;7.60;99.90;;;;;;4992534;28;20195;-75
2023/03/04 07:06:16;;;;;;;5.30;1.70;;;7.60;99.90;;;;;;4991552;28;20178;-75
2023/03/04 07:08:42;;;;;;;4.32;1.33;;;7.60;99.90;;;;;;4991861;28;20211;-77
2023/03/04 07:11:08;;;;;;;11.10;2.08;;;7.60;99.90;;;;;;4993153;28;20339;-75
2023/03/04 07:13:37;;;;;;;5.85;1.42;;;7.60;99.90;;;;;;4993070;28;20264;-76
2023/03/04 07:16:10;;;;;;;4.97;1.33;;;7.60;99.90;;;;;;4993082;28;20172;-76
2023/03/04 07:18:37;;;;;;;5.05;1.25;;;7.60;99.90;;;;;;4993160;28;20210;-75
2023/03/04 07:21:04;;;;;;;8.57;1.33;;;7.70;99.90;;;;;;4991747;28;20282;-76
2023/03/04 07:23:30;;;;;;;5.40;1.52;;;7.70;99.90;;;;;;4991650;28;20203;-77
2023/03/04 07:25:56;;;;;;;9.80;2.03;;;7.70;99.90;;;;;;4991223;28;20258;-77
2023/03/04 07:28:22;;;;;;;5.10;1.70;;;7.70;99.90;;;;;;4991633;28;20201;-77
2023/03/04 07:30:47;;;;;;;4.30;1.60;;;7.70;99.90;;;;;;4990538;28;20627;-77
2023/03/04 07:33:13;;;;;;;4.30;1.67;;;7.70;99.90;;;;;;4992164;28;20213;-77
2023/03/04 07:35:40;;;;;;;5.50;1.45;;;7.80;99.90;;;;;;4992763;28;20257;-76
2023/03/04 07:38:06;;;;;;;6.00;1.40;;;7.70;99.90;;;;;;4990722;28;20277;-76
2023/03/04 07:40:32;;;;;;;5.35;1.90;;;7.70;99.90;;;;;;4974412;28;20214;-75
2023/03/04 07:42:58;;;;;;;9.13;1.75;;;7.80;99.90;;;;;;4990420;28;20198;-76
2023/03/04 07:45:25;;;;;;;7.13;1.58;;;7.80;99.90;;;;;;4975163;28;20171;-76
2023/03/04 07:47:51;;;;;;;3.53;1.33;;;7.80;99.90;;;;;;4993211;28;20190;-76
2023/03/04 07:50:17;;;;;;;6.43;1.85;;;7.80;99.90;;;;;;4992375;28;20538;-76
2023/03/04 07:52:46;;;;;;;4.22;1.80;;;7.80;99.90;;;;;;4991573;28;20198;-76
2023/03/04 07:55:14;;;;;;;6.70;1.77;;;7.80;99.90;;;;;;4990769;28;20174;-75
2023/03/04 07:57:45;;;;;;;3.15;1.52;;;7.90;99.90;;;;;;4990922;28;20206;-75
2023/03/04 08:00:13;;;;;;;12.02;2.03;;;7.90;99.90;;;;;;4990658;28;20179;-76
2023/03/04 08:02:39;;;;;;;6.05;1.40;;;7.90;99.90;;;;;;4990643;28;20620;-76
2023/03/04 08:05:05;;;;;;;12.00;2.90;;;8.00;99.90;;;;;;4992196;28;20199;-77
2023/03/04 08:07:31;;;;;;;6.03;1.70;;;8.00;99.90;;;;;;4991252;28;20629;-77
2023/03/04 08:09:57;;;;;;;6.10;1.47;;;8.00;99.90;;;;;;4973883;28;20662;-76
2023/03/04 08:12:24;;;;;;;6.27;1.47;;;8.00;99.90;;;;;;4974200;28;21174;-76
2023/03/04 08:14:50;;;;;;;8.50;1.80;;;8.10;99.90;;;;;;4990336;28;20586;-76
2023/03/04 08:17:16;;;;;;;10.30;2.20;;;8.10;99.90;;;;;;4991404;28;20195;-75
2023/03/04 08:19:41;;;;;;;6.13;2.00;;;8.10;99.90;;;;;;4989812;28;20181;-75
2023/03/04 08:22:07;;;;;;;3.80;1.10;;;8.10;99.90;;;;;;4990446;28;20585;-76
2023/03/04 08:24:33;;;;;;;4.10;1.97;;;8.10;99.90;;;;;;4993652;28;20186;-76
2023/03/04 08:26:59;;;;;;;3.53;1.80;;;8.20;99.90;;;;;;4992753;28;20178;-76
2023/03/04 08:29:25;;;;;;;5.57;2.10;;;8.20;99.90;;;;;;4990839;28;20186;-76
2023/03/04 08:31:53;;;;;;;5.80;1.58;;;8.20;99.90;;;;;;4989289;28;20217;-76
2023/03/04 08:34:24;;;;;;;4.65;1.35;;;8.20;99.90;;;;;;4991799;28;20286;-75
2023/03/04 08:36:50;;;;;;;9.20;2.10;;;8.20;99.90;;;;;;4984476;28;20234;-75
2023/03/04 08:39:17;;;;;;;4.97;1.87;;;8.30;99.90;;;;;;4990240;28;20569;-77
2023/03/04 08:41:43;;;;;;;4.70;1.45;;;8.30;99.90;;;;;;4985153;28;20587;-76
2023/03/04 08:44:09;;;;;;;7.32;1.58;;;8.30;99.90;;;;;;4990851;28;20658;-76
2023/03/04 08:46:39;;;;;;;5.75;1.73;;;8.30;99.90;;;;;;4991738;28;20173;-77
2023/03/04 08:49:05;;;;;;;8.73;2.00;;;8.30;99.90;;;;;;4997663;28;20167;-77
2023/03/04 08:51:31;;;;;;;3.55;1.50;;;8.30;99.90;;;;;;4986206;28;20168;-76
2023/03/04 08:53:57;;;;;;;6.83;1.47;;;8.40;99.90;;;;;;4980894;28;20207;-75
2023/03/04 08:56:23;;;;;;;3.20;1.30;;;8.30;99.90;;;;;;4980712;28;20575;-76
2023/03/04 08:58:48;;;;;;;11.63;2.43;;;8.40;99.90;;;;;;4985817;28;20999;-76
2023/03/04 09:01:15;;;;;;;5.50;1.60;;;8.40;99.90;;;;;;4972143;28;20191;-77
2023/03/04 09:03:41;;;;;;;4.32;1.35;;;8.30;99.90;;;;;;4991236;28;20294;-76
2023/03/04 09:06:08;;;;;;;6.82;2.30;;;8.40;99.90;;;;;;4982600;28;20270;-76
2023/03/04 09:08:35;;;;;;;4.88;1.63;;;8.50;99.90;;;;;;4978059;28;20182;-76
2023/03/04 09:11:01;;;;;;;5.90;2.40;;;8.60;99.90;;;;;;4989759;28;20179;-76
2023/03/04 09:13:29;;;;;;;6.03;2.10;;;8.70;99.90;;;;;;4969735;28;20215;-76
2023/03/04 09:15:55;;;;;;;7.47;2.33;;;8.70;99.90;;;;;;4991158;28;20183;-76
2023/03/04 09:18:22;;;;;;;5.70;1.57;;;8.80;99.90;;;;;;4990148;28;20202;-76
2023/03/04 09:20:48;;;;;;;4.85;2.08;;;8.90;99.90;;;;;;4990941;28;20199;-76
2023/03/04 09:23:15;;;;;;;4.13;1.10;;;9.00;99.90;;;;;;4996191;28;20211;-76
2023/03/04 09:25:41;;;;;;;5.63;1.10;;;9.20;99.90;;;;;;4981136;28;20201;-76
2023/03/04 09:28:14;;;;;;;6.78;1.30;;;9.30;99.90;;;;;;4997549;28;20614;-76
2023/03/04 09:30:40;;;;;;;8.05;1.65;;;9.30;99.90;;;;;;5002997;28;20543;-78
2023/03/04 09:33:06;;;;;;;2.50;1.00;;;9.40;99.90;;;;;;5002299;28;20229;-77
2023/03/04 09:35:31;;;;;;;3.00;1.13;;;9.50;99.90;;;;;;4999883;28;20282;-76
2023/03/04 09:37:58;;;;;;;2.83;0.80;;;9.60;99.90;;;;;;4970281;28;20660;-77
2023/03/04 09:40:39;;;;;;;3.15;0.90;;;9.70;99.90;;;;;;4989281;28;21016;-77
2023/03/04 09:43:10;;;;;;;5.57;1.35;;;9.80;99.90;;;;;;4996959;28;20195;-76
2023/03/04 09:45:44;;;;;;;3.40;1.40;;;9.80;99.90;;;;;;4997706;28;20185;-76
2023/03/04 09:48:14;;;;;;;4.93;1.30;;;9.90;99.90;;;;;;4997338;28;20186;-77
2023/03/04 09:51:06;;;;;;;3.63;1.08;;;10.00;99.90;;;;;;4998849;28;20174;-77
2023/03/04 09:54:03;;;;;;;3.03;1.02;;;10.00;99.90;;;;;;4994091;28;20874;-76
2023/03/04 09:56:36;;;;;;;3.45;1.20;;;10.10;99.90;;;;;;4995720;28;20167;-77
2023/03/04 09:59:34;;;;;;;6.05;2.05;;;10.10;99.90;;;;;;4993905;28;20203;-77
2023/03/04 10:02:15;;;;;;;3.28;0.90;;;10.20;99.90;;;;;;4991439;28;20187;-77
2023/03/04 10:04:48;;;;;;;3.40;1.10;;;10.10;99.90;;;;;;4980594;28;20175;-75
2023/03/04 10:07:26;;;;;;;3.85;1.35;;;10.10;99.90;;;;;;4993645;28;20171;-78
2023/03/04 10:09:58;;;;;;;3.35;1.20;;;10.00;99.90;;;;;;4992684;28;20182;-77
2023/03/04 10:12:29;;;;;;;3.13;1.20;;;10.00;99.90;;;;;;4976553;28;20199;-77
2023/03/04 10:15:05;;;;;;;5.35;1.30;;;9.90;99.90;;;;;;4994331;28;20646;-77
2023/03/04 10:17:38;;;;;;;7.65;1.10;;;9.90;99.90;;;;;;4994949;28;20539;-76
2023/03/04 10:20:28;;;;;;;4.15;1.10;;;9.90;99.90;;;;;;4988084;28;20777;-76
2023/03/04 10:23:01;;;;;;;3.70;1.20;;;9.90;99.90;;;;;;4990122;28;20218;-76
2023/03/04 10:25:32;;;;;;;2.72;1.00;;;9.90;99.90;;;;;;4992586;28;20266;-76
2023/03/04 10:28:09;;;;;;;2.10;0.75;;;9.90;99.90;;;;;;4992923;28;20179;-76
2023/03/04 10:30:44;;;;;;;4.97;1.10;;;9.90;99.90;;;;;;4991744;28;20271;-77
2023/03/04 10:33:17;;;;;;;3.65;1.10;;;9.90;99.90;;;;;;4993460;28;20209;-77
2023/03/04 10:36:08;;;;;;;4.43;1.10;;;9.90;99.90;;;;;;4992017;28;20201;-77
2023/03/04 10:38:40;;;;;;;3.28;1.00;;;9.80;99.90;;;;;;4983227;28;20714;-77
2023/03/04 10:41:16;;;;;;;3.25;1.40;;;9.90;99.90;;;;;;4972222;28;20176;-77
2023/03/04 10:43:48;;;;;;;5.25;1.52;;;10.00;99.90;;;;;;4974181;28;20195;-76
2023/03/04 10:46:14;;;;;;;3.15;1.30;;;10.10;99.90;;;;;;4973990;28;20187;-77
2023/03/04 10:48:43;;;;;;;3.97;0.90;;;10.20;99.90;;;;;;4972784;28;20178;-77
2023/03/04 10:51:22;;;;;;;6.60;1.33;;;10.30;99.90;;;;;;4985513;28;20190;-76
2023/03/04 10:53:54;;;;;;;4.30;1.23;;;10.40;99.90;;;;;;4988903;28;20817;-77
2023/03/04 10:56:44;;;;;;;3.75;1.20;;;10.50;99.90;;;;;;4994150;28;20190;-76
2023/03/04 10:59:34;;;;;;;4.80;3.30;;;10.50;99.90;;;;;;4992271;28;20207;-75
2023/03/04 11:02:09;;;;;;;7.60;5.18;;;10.50;99.90;;;;;;4991244;28;20190;-76
2023/03/04 11:04:35;;;;;;;7.55;3.17;;;10.50;99.90;;;;;;4992050;28;20170;-77
2023/03/04 11:07:01;;;;;;;5.67;3.30;;;10.50;99.90;;;;;;4989641;28;20691;-77
2023/03/04 11:09:29;;;;;;;4.37;2.00;;;10.40;99.90;;;;;;4989808;28;20238;-77
2023/03/04 11:11:59;;;;;;;6.00;1.77;;;10.40;99.90;;;;;;4985933;28;20591;-77
2023/03/04 11:14:40;;;;;;;3.40;2.38;;;10.40;99.90;;;;;;4999195;28;20302;-76
2023/03/04 11:17:25;;;;;;;4.72;1.83;;;10.50;99.90;;;;;;4975224;28;20190;-77
2023/03/04 11:20:18;;;;;;;4.60;1.95;;;10.60;99.90;;;;;;4979968;28;20293;-75
2023/03/04 11:22:46;;;;;;;9.13;1.60;;;10.80;99.90;;;;;;4975005;28;20286;-77
2023/03/04 11:25:25;;;;;;;4.47;2.77;;;11.00;99.90;;;;;;4974308;28;20635;-78
2023/03/04 11:28:16;;;;;;;5.75;2.40;;;11.10;99.90;;;;;;4973658;28;20606;-77
2023/03/04 11:30:46;;;;;;;7.10;1.85;;;11.10;99.90;;;;;;4990053;28;20217;-76
2023/03/04 11:33:41;;;;;;;1.90;1.30;;;11.20;99.90;;;;;;4991315;28;20218;-75
2023/03/04 11:36:21;;;;;;;6.80;1.55;;;11.30;99.90;;;;;;4992002;28;20183;-75
2023/03/04 11:38:49;;;;;;;4.72;1.33;;;11.20;99.90;;;;;;4984764;28;20207;-77
2023/03/04 11:41:23;;;;;;;3.88;1.20;;;11.30;99.90;;;;;;4972507;28;20664;-77
2023/03/04 11:43:49;;;;;;;3.30;1.00;;;11.20;99.90;;;;;;4992201;28;20211;-78
2023/03/04 11:46:34;;;;;;;4.70;1.27;;;11.20;99.90;;;;;;4990757;28;20193;-77
2023/03/04 11:49:23;;;;;;;5.13;2.35;;;11.10;99.90;;;;;;4988367;28;20705;-77
2023/03/04 11:52:23;;;;;;;2.22;0.85;;;11.10;99.90;;;;;;4971719;28;20612;-77
2023/03/04 11:55:07;;;;;;;2.60;1.25;;;11.10;99.90;;;;;;4980467;28;20179;-77
2023/03/04 11:57:43;;;;;;;3.25;0.90;;;11.00;99.90;;;;;;4992427;28;20535;-78
2023/03/04 12:00:27;;;;;;;3.28;1.00;;;11.00;99.90;;;;;;5008157;28;20171;-76
2023/03/04 12:03:30;;;;;;;5.07;1.27;;;10.90;99.90;;;;;;4992775;28;20195;-78
2023/03/04 12:06:14;;;;;;;2.70;1.15;;;10.90;99.90;;;;;;4990965;28;20276;-78
2023/03/04 12:08:46;;;;;;;5.78;1.50;;;10.90;99.90;;;;;;4993782;28;20274;-78
2023/03/04 12:11:39;;;;;;;1.73;0.90;;;10.80;99.90;;;;;;4989882;28;20171;-78
2023/03/04 12:14:23;;;;;;;3.30;1.08;;;10.80;99.90;;;;;;4971849;28;20195;-77
2023/03/04 12:17:16;;;;;;;4.95;0.82;;;10.70;99.90;;;;;;4972260;28;20224;-77
2023/03/04 12:19:54;;;;;;;2.20;0.90;;;10.70;99.90;;;;;;4970841;28;20184;-80
2023/03/04 12:22:51;;;;;;;2.25;1.08;;;10.70;99.90;;;;;;5005311;28;20247;-79
2023/03/04 12:25:26;;;;;;;2.58;0.80;;;10.70;99.90;;;;;;4976876;28;20607;-82
2023/03/04 12:27:59;;;;;;;2.50;0.90;;;10.80;99.90;;;;;;4977341;28;20179;-83
2023/03/04 12:30:54;;;;;;;2.83;0.95;;;10.90;99.90;;;;;;4975098;28;20171;-85
2023/03/04 12:33:29;;;;;;;2.40;0.80;;;11.10;99.90;;;;;;4974801;28;20207;-82
2023/03/04 12:36:14;;;;;;;2.35;1.00;;;11.20;99.90;;;;;;4976639;28;20185;-84
2023/03/04 12:39:08;;;;;;;2.30;0.80;;;11.30;99.90;;;;;;4991469;28;20297;-82
2023/03/04 12:42:10;;;;;;;4.85;1.40;;;11.40;99.90;;;;;;4990765;28;20167;-82
2023/03/04 12:44:57;;;;;;;5.35;1.00;;;11.40;99.90;;;;;;4989373;28;20174;-80
2023/03/04 12:47:43;;;;;;;2.60;0.90;;;11.50;99.90;;;;;;4993062;28;20179;-78
2023/03/04 12:50:30;;;;;;;3.10;0.98;;;11.50;99.90;;;;;;4969239;28;20203;-78
2023/03/04 12:53:08;;;;;;;3.17;1.00;;;11.50;99.90;;;;;;4980019;28;20230;-79
2023/03/04 12:55:37;;;;;;;3.75;1.10;;;11.50;99.90;;;;;;4991272;28;20793;-79
2023/03/04 12:58:15;;;;;;;1.50;0.60;;;11.50;99.90;;;;;;4974535;28;20206;-76
2023/03/04 13:01:11;;;;;;;3.00;0.90;;;11.50;99.90;;;;;;4989479;28;20189;-80
2023/03/04 13:04:07;;;;;;;4.00;0.80;;;11.50;99.90;;;;;;4997061;28;20199;-78
2023/03/04 13:06:45;;;;;;;3.08;1.45;;;11.50;99.90;;;;;;4996441;28;20197;-79